Rural Hill, New York
Current Conditions -  °F | °C
As of 5:56 AM on Thursday 18 Dec 2014 (Local Time) from KART Reporting Station
Light Snow Light Snow  
Wind Chill: 24°   Ceiling: 1800
Heat Index: 34°   Visibility: 7mi
Dew Point: 27°   Wind: 15mph
Humidity: 75%   Direction: 270°W
Pressure: 29.93"   Gusts: NA
Location:  43.8534°N, 76.251°W
Report Text: KART 181056Z AUTO 27013KT 7SM -SN OVC018 01/M03 A2993 RMK AO2 SNE02B43 SLP140 P0000 T00111028
Loading
Personal Weather Stations






























Interactive Weather Map New forecast layout! Learn more

10-Day Weather Forecast

Advertisements
Track Severe Weather on mobile